Time;durP1;ratioP1;P1;durP2;ratioP2;P2;SDS_P1;SDS_P2;PMS_P1;PMS_P2;Temp;Humidity;BMP_temperature;BMP_pressure;BME280_temperature;BME280_humidity;BME280_pressure;Samples;Min_cycle;Max_cycle;Signal;HPM_P1;HPM_P2
2022/06/12 00:00:12;;;;;;;7.57;5.73;;;21.60;87.50;;;;;;5086687;28;20431;-69
2022/06/12 00:02:38;;;;;;;12.60;6.87;;;21.60;88.50;;;;;;5087293;28;20419;-68
2022/06/12 00:05:05;;;;;;;7.33;6.10;;;21.60;89.10;;;;;;5087800;28;20912;-69
2022/06/12 00:07:31;;;;;;;8.17;6.30;;;21.60;90.20;;;;;;5086846;28;20469;-71
2022/06/12 00:09:57;;;;;;;18.17;8.40;;;21.60;90.60;;;;;;5086338;28;20412;-69
2022/06/12 00:12:22;;;;;;;8.33;6.37;;;21.50;90.90;;;;;;5087440;28;20306;-68
2022/06/12 00:14:48;;;;;;;11.50;7.17;;;21.50;91.70;;;;;;5082783;28;20231;-69
2022/06/12 00:17:14;;;;;;;7.07;6.47;;;21.50;91.60;;;;;;5086180;28;20617;-68
2022/06/12 00:19:43;;;;;;;7.77;6.27;;;21.50;92.30;;;;;;5086848;28;20169;-68
2022/06/12 00:22:08;;;;;;;9.13;6.17;;;21.40;92.60;;;;;;5087016;28;20185;-68
2022/06/12 00:24:35;;;;;;;9.80;7.37;;;21.40;92.80;;;;;;5085816;28;20551;-68
2022/06/12 00:27:03;;;;;;;7.50;6.57;;;21.40;92.90;;;;;;5086706;28;20173;-68
2022/06/12 00:29:32;;;;;;;8.70;6.77;;;21.30;93.40;;;;;;5080658;28;20422;-67
2022/06/12 00:32:05;;;;;;;8.00;7.20;;;21.30;93.70;;;;;;5079349;28;20723;-68
2022/06/12 00:34:41;;;;;;;11.33;6.63;;;21.30;94.30;;;;;;5084798;28;20415;-68
2022/06/12 00:37:10;;;;;;;7.10;6.50;;;21.30;94.70;;;;;;5090378;28;20408;-68
2022/06/12 00:39:36;;;;;;;8.10;7.30;;;21.20;95.20;;;;;;5089431;28;20514;-68
2022/06/12 00:42:04;;;;;;;18.43;7.87;;;21.20;95.50;;;;;;5091148;28;20585;-68
2022/06/12 00:44:42;;;;;;;9.60;7.53;;;21.20;96.30;;;;;;5090513;28;20689;-69
2022/06/12 00:47:12;;;;;;;10.43;6.90;;;21.10;96.30;;;;;;5089798;28;20496;-68
2022/06/12 00:49:50;;;;;;;7.07;6.20;;;21.10;96.50;;;;;;5090625;28;20404;-68
2022/06/12 00:52:24;;;;;;;7.97;6.77;;;21.00;97.10;;;;;;5090370;28;20449;-68
2022/06/12 00:54:55;;;;;;;11.43;7.53;;;21.00;97.80;;;;;;5090853;28;20748;-69
2022/06/12 00:57:22;;;;;;;8.50;6.50;;;21.00;96.20;;;;;;5089992;28;20419;-68
2022/06/12 00:59:53;;;;;;;8.33;6.60;;;20.90;98.00;;;;;;5090680;28;20433;-68
2022/06/12 01:02:23;;;;;;;6.97;6.37;;;20.90;98.20;;;;;;5090198;28;20411;-68
2022/06/12 01:07:37;;;;;;;7.73;7.03;;;20.80;98.90;;;;;;5089948;28;20426;-67
2022/06/12 01:10:08;;;;;;;8.50;6.20;;;20.80;99.40;;;;;;5089507;28;20436;-69
2022/06/12 01:12:55;;;;;;;13.20;6.50;;;20.70;99.80;;;;;;5084491;28;20435;-68
2022/06/12 01:15:27;;;;;;;7.73;6.50;;;20.70;99.90;;;;;;5089956;28;20514;-68
2022/06/12 01:17:55;;;;;;;9.87;5.77;;;20.60;99.90;;;;;;5089085;28;20408;-68
2022/06/12 01:20:25;;;;;;;8.90;7.37;;;20.60;99.90;;;;;;5089461;28;20935;-68
2022/06/12 01:23:06;;;;;;;45.00;9.90;;;20.60;99.90;;;;;;5088204;28;20423;-68
2022/06/12 01:25:35;;;;;;;8.30;7.47;;;20.50;99.90;;;;;;5086544;28;20500;-69
2022/06/12 01:28:22;;;;;;;7.53;6.63;;;20.50;99.90;;;;;;5089430;28;20423;-69
2022/06/12 01:31:10;;;;;;;7.30;6.50;;;20.50;99.90;;;;;;5084945;28;20631;-68
2022/06/12 01:33:35;;;;;;;7.43;6.30;;;20.50;99.90;;;;;;5084764;28;20415;-68
2022/06/12 01:36:20;;;;;;;9.90;7.20;;;20.50;99.90;;;;;;5089138;28;20423;-68
2022/06/12 01:38:54;;;;;;;8.10;7.07;;;20.40;99.90;;;;;;5083363;28;20173;-69
2022/06/12 01:41:51;;;;;;;9.50;6.80;;;20.40;99.90;;;;;;5089573;28;20430;-69
2022/06/12 01:44:36;;;;;;;13.43;6.60;;;20.40;99.90;;;;;;5090839;28;20463;-69
2022/06/12 01:47:15;;;;;;;8.10;7.30;;;20.30;99.90;;;;;;5088767;28;20468;-68
2022/06/12 01:49:49;;;;;;;12.80;7.40;;;20.20;99.90;;;;;;5084307;28;20453;-69
2022/06/12 01:52:28;;;;;;;8.93;6.87;;;20.20;99.90;;;;;;5088844;28;20423;-68
2022/06/12 01:55:19;;;;;;;10.23;6.93;;;20.20;99.90;;;;;;5089494;28;20916;-69
2022/06/12 01:57:56;;;;;;;11.43;6.60;;;20.10;99.90;;;;;;5089585;28;20419;-69
2022/06/12 02:00:24;;;;;;;9.43;7.47;;;20.10;99.90;;;;;;5089061;28;20431;-68
2022/06/12 02:03:12;;;;;;;8.33;7.17;;;20.10;99.90;;;;;;5089048;28;20418;-69
2022/06/12 02:05:55;;;;;;;7.27;6.30;;;20.10;99.90;;;;;;5083057;28;20402;-69
2022/06/12 02:08:45;;;;;;;7.93;7.20;;;20.00;99.90;;;;;;5087941;28;20428;-69
2022/06/12 02:14:15;;;;;;;8.30;6.67;;;19.90;99.90;;;;;;5089435;28;20443;-68
2022/06/12 02:16:45;;;;;;;7.87;7.07;;;19.90;99.90;;;;;;5083269;28;20444;-69
2022/06/12 02:19:27;;;;;;;6.93;6.33;;;19.90;99.90;;;;;;5088568;28;20517;-68
2022/06/12 02:21:59;;;;;;;7.80;7.00;;;19.80;99.90;;;;;;5088440;28;20427;-68
2022/06/12 02:24:33;;;;;;;8.53;6.93;;;19.80;99.90;;;;;;5087649;28;20467;-68
2022/06/12 02:27:03;;;;;;;7.43;6.40;;;19.80;99.90;;;;;;5088650;28;20777;-68
2022/06/12 02:29:48;;;;;;;10.90;7.33;;;19.80;99.90;;;;;;5087525;28;20407;-68
2022/06/12 02:32:19;;;;;;;7.17;6.50;;;19.80;99.90;;;;;;5088077;28;20884;-68
2022/06/12 02:34:52;;;;;;;7.80;6.70;;;19.80;99.90;;;;;;5089069;28;20496;-69
2022/06/12 02:37:23;;;;;;;7.83;6.60;;;19.80;99.90;;;;;;5087279;28;20506;-68
2022/06/12 02:39:55;;;;;;;12.17;7.47;;;19.70;99.90;;;;;;5087891;28;20408;-69
2022/06/12 02:42:29;;;;;;;9.23;7.07;;;19.70;99.90;;;;;;5088435;28;21181;-68
2022/06/12 02:45:16;;;;;;;8.93;8.03;;;19.60;99.90;;;;;;5088591;28;20475;-69
2022/06/12 02:47:43;;;;;;;8.73;6.83;;;19.60;99.90;;;;;;5087927;28;20945;-68
2022/06/12 02:50:13;;;;;;;8.33;7.53;;;19.60;99.90;;;;;;5087683;28;20755;-69
2022/06/12 02:53:00;;;;;;;13.10;8.10;;;19.60;99.90;;;;;;5084642;28;20411;-69
2022/06/12 02:55:45;;;;;;;7.20;6.50;;;19.50;99.90;;;;;;5088087;28;20424;-69
2022/06/12 02:58:20;;;;;;;16.13;8.60;;;19.50;99.90;;;;;;5088001;28;20477;-69
2022/06/12 03:00:52;;;;;;;11.90;8.23;;;19.50;99.90;;;;;;5087694;28;20809;-68
2022/06/12 03:03:23;;;;;;;7.70;6.97;;;19.50;99.90;;;;;;5088219;28;20458;-68
2022/06/12 03:05:51;;;;;;;9.07;6.67;;;19.50;99.90;;;;;;5087571;28;21200;-68
2022/06/12 03:08:21;;;;;;;16.90;8.80;;;19.50;99.90;;;;;;5086063;28;20426;-69
2022/06/12 03:10:52;;;;;;;12.33;7.40;;;19.40;99.90;;;;;;5088112;28;20484;-68
2022/06/12 03:13:18;;;;;;;38.23;8.60;;;19.40;99.90;;;;;;5088053;28;20472;-69
2022/06/12 03:15:49;;;;;;;25.63;8.20;;;19.30;99.90;;;;;;5087794;28;20449;-69
2022/06/12 03:18:20;;;;;;;10.93;6.90;;;19.30;99.90;;;;;;5087059;28;20408;-68
2022/06/12 03:21:19;;;;;;;8.33;6.57;;;19.30;99.90;;;;;;5087353;28;20460;-69
2022/06/12 03:24:18;;;;;;;6.40;5.80;;;19.30;99.90;;;;;;5084908;28;20455;-68
2022/06/12 03:26:55;;;;;;;8.67;6.57;;;19.20;99.90;;;;;;5087525;28;20404;-68
2022/06/12 03:29:38;;;;;;;7.53;6.40;;;19.20;99.90;;;;;;5087304;28;20454;-69
2022/06/12 03:32:30;;;;;;;8.67;7.13;;;19.10;99.90;;;;;;5087034;28;20529;-69
2022/06/12 03:35:14;;;;;;;9.23;6.30;;;19.10;99.90;;;;;;5084291;28;20774;-68
2022/06/12 03:37:52;;;;;;;15.33;7.20;;;19.10;99.90;;;;;;5086784;28;20862;-68
2022/06/12 03:40:48;;;;;;;10.20;7.10;;;19.10;99.90;;;;;;5086117;28;20439;-73
2022/06/12 03:43:34;;;;;;;63.73;10.80;;;19.10;99.90;;;;;;5087407;28;20451;-74
2022/06/12 03:46:13;;;;;;;59.20;10.50;;;19.10;99.90;;;;;;5085943;28;21130;-72
2022/06/12 03:48:46;;;;;;;13.70;7.60;;;19.00;99.90;;;;;;5087050;28;20758;-72
2022/06/12 03:51:31;;;;;;;7.13;6.30;;;19.00;99.90;;;;;;5085230;28;20484;-73
2022/06/12 03:54:05;;;;;;;7.43;6.60;;;19.00;99.90;;;;;;5081412;28;20420;-73
2022/06/12 04:00:03;;;;;;;10.37;6.20;;;19.10;99.90;;;;;;5087416;28;20464;-73
2022/06/12 04:02:32;;;;;;;7.77;6.60;;;19.10;99.90;;;;;;5085659;28;20430;-73
2022/06/12 04:05:00;;;;;;;7.57;6.03;;;19.10;99.90;;;;;;5087048;28;20579;-73
2022/06/12 04:07:28;;;;;;;6.30;5.60;;;19.20;99.90;;;;;;5089488;28;20415;-73
2022/06/12 04:09:58;;;;;;;7.23;6.53;;;19.20;99.90;;;;;;5090129;28;20451;-73
2022/06/12 04:12:28;;;;;;;20.63;8.17;;;19.20;99.90;;;;;;5090757;28;20754;-73
2022/06/12 04:15:22;;;;;;;18.20;7.40;;;19.30;99.90;;;;;;5090898;28;20494;-73
2022/06/12 04:17:48;;;;;;;24.93;7.30;;;19.30;99.90;;;;;;5087795;28;20419;-72
2022/06/12 04:20:20;;;;;;;14.90;6.47;;;19.30;99.90;;;;;;5090826;28;20927;-72
2022/06/12 04:22:55;;;;;;;23.73;8.30;;;19.40;99.90;;;;;;5084759;28;20492;-73
2022/06/12 04:25:35;;;;;;;21.63;8.30;;;19.40;99.90;;;;;;5090246;28;20415;-73
2022/06/12 04:28:04;;;;;;;16.30;6.70;;;19.40;99.90;;;;;;5090601;28;20480;-73
2022/06/12 04:30:34;;;;;;;18.00;6.73;;;19.50;99.90;;;;;;5089601;28;20446;-73
2022/06/12 04:33:28;;;;;;;8.30;6.83;;;19.50;99.90;;;;;;5090707;28;20918;-73
2022/06/12 04:35:58;;;;;;;7.13;6.17;;;19.60;99.90;;;;;;5090392;28;21100;-73
2022/06/12 04:38:25;;;;;;;9.93;7.20;;;19.60;99.90;;;;;;5088812;28;20422;-73
2022/06/12 04:40:52;;;;;;;9.57;7.30;;;19.70;99.90;;;;;;5090372;28;21029;-73
2022/06/12 04:43:18;;;;;;;9.00;7.07;;;19.70;99.90;;;;;;5090470;28;20451;-73
2022/06/12 04:45:45;;;;;;;15.37;7.50;;;19.80;99.90;;;;;;5090163;28;20416;-73
2022/06/12 04:48:15;;;;;;;8.40;5.97;;;19.90;99.90;;;;;;5089193;28;20926;-73
2022/06/12 04:50:42;;;;;;;17.13;7.97;;;19.90;99.90;;;;;;5083870;28;20427;-73
2022/06/12 04:53:08;;;;;;;10.73;7.03;;;20.00;99.90;;;;;;5087433;28;20457;-73
2022/06/12 04:55:33;;;;;;;42.50;10.10;;;20.10;99.90;;;;;;5090002;28;20423;-73
2022/06/12 04:58:01;;;;;;;10.53;7.70;;;20.30;99.90;;;;;;5089476;28;21417;-73
2022/06/12 05:00:27;;;;;;;21.63;9.10;;;20.40;99.90;;;;;;5089437;28;20201;-73
2022/06/12 05:02:54;;;;;;;15.03;7.20;;;20.50;99.90;;;;;;5089919;28;20907;-73
2022/06/12 05:05:19;;;;;;;22.33;8.03;;;20.60;99.90;;;;;;5089449;28;20558;-73
2022/06/12 05:07:45;;;;;;;9.90;6.80;;;20.70;99.90;;;;;;5089220;28;20844;-73
2022/06/12 05:10:14;;;;;;;19.70;7.40;;;20.70;99.90;;;;;;5089478;28;20250;-73
2022/06/12 05:12:40;;;;;;;14.27;6.50;;;20.90;99.90;;;;;;5090631;28;20181;-73
2022/06/12 05:15:07;;;;;;;6.70;6.00;;;21.00;99.90;;;;;;5090117;28;20519;-73
2022/06/12 05:17:33;;;;;;;14.70;7.23;;;21.10;99.90;;;;;;5088709;28;20169;-73
2022/06/12 05:19:59;;;;;;;10.20;6.60;;;21.20;99.90;;;;;;5089298;28;20895;-73
2022/06/12 05:22:25;;;;;;;10.60;6.90;;;21.30;99.90;;;;;;5089419;28;20177;-73
2022/06/12 05:24:52;;;;;;;14.87;7.10;;;21.40;99.90;;;;;;5086076;28;20189;-73
2022/06/12 05:27:22;;;;;;;14.63;6.87;;;21.50;99.90;;;;;;5089297;28;20417;-73
2022/06/12 05:29:48;;;;;;;21.63;7.03;;;21.60;99.90;;;;;;5089877;28;20992;-73
2022/06/12 05:32:17;;;;;;;12.40;6.80;;;21.70;99.90;;;;;;5087647;28;20434;-73
2022/06/12 05:34:43;;;;;;;15.40;6.90;;;21.90;99.90;;;;;;5089830;28;20989;-73
2022/06/12 05:37:10;;;;;;;8.60;6.77;;;22.00;99.90;;;;;;5088657;28;20522;-73
2022/06/12 05:39:37;;;;;;;10.77;6.20;;;22.00;99.90;;;;;;5088563;28;20411;-73
2022/06/12 05:42:03;;;;;;;14.13;7.70;;;22.10;99.90;;;;;;5089906;28;20462;-73
2022/06/12 05:44:29;;;;;;;18.50;7.83;;;22.30;99.90;;;;;;5089900;28;20451;-73
2022/06/12 05:46:59;;;;;;;18.93;8.40;;;22.40;99.90;;;;;;5088904;28;20414;-73
2022/06/12 05:49:26;;;;;;;7.77;5.97;;;22.40;99.90;;;;;;5088799;28;20244;-73
2022/06/12 05:51:51;;;;;;;17.03;6.20;;;22.50;99.90;;;;;;5087649;28;20426;-73
2022/06/12 05:54:17;;;;;;;7.17;5.90;;;22.70;99.90;;;;;;5088986;28;20422;-73
2022/06/12 05:56:43;;;;;;;15.30;7.13;;;22.90;99.90;;;;;;5089361;28;20206;-73
2022/06/12 05:59:09;;;;;;;9.00;6.33;;;23.00;99.90;;;;;;5088327;28;20254;-73
2022/06/12 06:01:38;;;;;;;11.60;7.90;;;23.10;99.90;;;;;;5088777;28;20230;-73
2022/06/12 06:04:04;;;;;;;13.63;6.40;;;23.20;99.90;;;;;;5088873;28;20776;-73
2022/06/12 06:06:34;;;;;;;9.13;6.00;;;23.40;99.90;;;;;;5088511;28;20588;-73
2022/06/12 06:09:00;;;;;;;7.10;6.50;;;23.60;99.90;;;;;;5088706;28;20770;-73
2022/06/12 06:11:27;;;;;;;30.27;8.77;;;23.70;99.90;;;;;;5088987;28;20439;-73
2022/06/12 06:13:52;;;;;;;12.73;6.10;;;23.80;99.90;;;;;;5089237;28;20419;-73
2022/06/12 06:16:18;;;;;;;11.20;6.50;;;23.90;99.90;;;;;;5087394;28;20937;-73
2022/06/12 06:18:44;;;;;;;14.53;7.13;;;24.00;99.90;;;;;;5087935;28;20268;-73
2022/06/12 06:21:11;;;;;;;9.60;6.50;;;24.10;99.90;;;;;;5088920;28;20262;-77
2022/06/12 06:23:38;;;;;;;31.40;8.40;;;24.20;99.90;;;;;;5091409;28;20219;-78
2022/06/12 06:26:04;;;;;;;13.97;7.60;;;24.20;99.90;;;;;;5091637;28;20536;-78
2022/06/12 06:28:30;;;;;;;8.13;7.00;;;24.40;99.90;;;;;;5090679;28;20419;-78
2022/06/12 06:30:56;;;;;;;16.57;7.60;;;24.50;99.90;;;;;;5085343;28;20226;-78
2022/06/12 06:33:22;;;;;;;10.53;6.37;;;24.60;99.90;;;;;;5091173;28;20538;-77
2022/06/12 06:35:49;;;;;;;13.33;6.40;;;24.70;99.90;;;;;;5091257;28;20446;-78
2022/06/12 06:38:14;;;;;;;30.57;9.07;;;24.80;99.90;;;;;;5090763;28;20176;-78
2022/06/12 06:40:40;;;;;;;13.17;6.80;;;25.00;99.90;;;;;;5091679;28;20798;-77
2022/06/12 06:43:07;;;;;;;11.37;6.83;;;25.10;99.90;;;;;;5092961;28;20747;-78
2022/06/12 06:48:19;;;;;;;17.57;6.93;;;25.40;99.90;;;;;;5091417;28;20426;-78
2022/06/12 06:50:45;;;;;;;13.20;6.87;;;25.50;99.90;;;;;;5091454;28;20946;-77
2022/06/12 06:53:11;;;;;;;10.10;6.60;;;25.50;99.90;;;;;;5093417;28;20177;-76
2022/06/12 06:55:38;;;;;;;28.83;8.30;;;25.70;98.40;;;;;;5092490;28;20176;-75
2022/06/12 06:58:11;;;;;;;17.43;6.80;;;25.80;98.10;;;;;;5092279;28;20265;-78
2022/06/12 07:00:39;;;;;;;10.00;6.50;;;25.90;96.70;;;;;;5090283;28;20191;-76
2022/06/12 07:03:06;;;;;;;16.33;6.37;;;26.10;95.70;;;;;;5090600;28;20205;-76
2022/06/12 07:05:32;;;;;;;6.93;4.70;;;26.20;94.30;;;;;;5091161;28;20185;-77
2022/06/12 07:08:00;;;;;;;7.47;4.70;;;26.30;93.40;;;;;;5091447;28;20165;-78
2022/06/12 07:10:28;;;;;;;9.03;5.30;;;26.50;91.60;;;;;;5091536;28;20193;-78
2022/06/12 07:12:55;;;;;;;28.10;6.70;;;26.50;90.20;;;;;;5093374;28;20232;-78
2022/06/12 07:15:22;;;;;;;133.50;15.00;;;26.60;88.20;;;;;;5091902;28;20165;-77
2022/06/12 07:17:48;;;;;;;54.33;7.60;;;26.70;85.90;;;;;;5091680;28;20200;-78
2022/06/12 07:20:17;;;;;;;53.00;8.73;;;26.80;83.90;;;;;;5092530;28;20188;-78
2022/06/12 07:22:43;;;;;;;291.50;25.50;;;27.00;80.80;;;;;;5091308;28;20621;-78
2022/06/12 07:25:10;;;;;;;22.80;5.00;;;27.10;79.20;;;;;;5089665;28;20200;-78
2022/06/12 07:27:38;;;;;;;16.92;5.53;;;27.20;73.30;;;;;;5088699;28;20172;-78
2022/06/12 07:30:05;;;;;;;8.93;3.95;;;27.30;71.50;;;;;;5090324;28;20241;-78
2022/06/12 07:32:31;;;;;;;5.07;3.93;;;27.50;68.60;;;;;;5087637;28;20255;-77
2022/06/12 07:34:57;;;;;;;7.97;3.78;;;27.60;65.10;;;;;;5086930;28;20257;-77
2022/06/12 07:37:23;;;;;;;11.60;4.07;;;27.70;62.40;;;;;;5089129;28;20645;-77
2022/06/12 07:39:48;;;;;;;11.73;4.15;;;27.80;59.50;;;;;;5091073;28;20188;-77
2022/06/12 07:42:14;;;;;;;23.80;4.72;;;27.70;59.10;;;;;;5092551;28;20173;-77
2022/06/12 07:44:40;;;;;;;5.65;3.50;;;27.90;56.40;;;;;;5092526;28;20712;-77
2022/06/12 07:47:06;;;;;;;7.43;4.07;;;28.00;53.90;;;;;;5092985;28;20198;-77
2022/06/12 07:49:32;;;;;;;27.58;5.57;;;28.10;52.30;;;;;;5093151;28;20283;-77
2022/06/12 07:52:01;;;;;;;7.60;3.83;;;28.20;51.30;;;;;;5092325;28;20728;-77
2022/06/12 07:54:27;;;;;;;12.00;3.65;;;28.20;48.80;;;;;;5092977;28;20180;-77
2022/06/12 07:56:53;;;;;;;42.78;6.80;;;28.40;47.50;;;;;;5092174;28;20256;-77
2022/06/12 07:59:19;;;;;;;7.07;3.50;;;28.50;45.70;;;;;;5092578;28;20181;-72
2022/06/12 08:01:45;;;;;;;8.75;3.10;;;28.50;43.20;;;;;;5090834;28;20216;-73
2022/06/12 08:04:11;;;;;;;9.68;3.85;;;28.70;54.40;;;;;;5092148;28;20416;-72
2022/06/12 08:06:37;;;;;;;15.50;3.85;;;28.80;38.70;;;;;;5090566;28;20197;-71
2022/06/12 08:09:07;;;;;;;12.10;3.45;;;28.80;36.50;;;;;;5090452;28;20684;-72
2022/06/12 08:11:33;;;;;;;85.45;11.07;;;28.80;34.80;;;;;;5091004;28;20186;-73
2022/06/12 08:13:59;;;;;;;23.77;4.57;;;29.00;31.30;;;;;;5092038;28;20181;-72
2022/06/12 08:16:26;;;;;;;20.65;4.43;;;29.10;29.60;;;;;;5091009;28;20830;-73
2022/06/12 08:18:52;;;;;;;6.88;3.05;;;29.10;29.10;;;;;;5091339;28;20184;-72
2022/06/12 08:21:18;;;;;;;18.10;4.22;;;29.20;26.30;;;;;;5091331;28;20201;-72
2022/06/12 08:23:46;;;;;;;13.30;4.35;;;29.30;24.40;;;;;;5090127;28;20238;-70
2022/06/12 08:26:18;;;;;;;8.50;2.80;;;29.30;23.50;;;;;;5091024;28;20501;-71
2022/06/12 08:28:46;;;;;;;46.45;6.60;;;29.40;22.00;;;;;;5090299;28;20172;-72
2022/06/12 08:31:17;;;;;;;38.10;6.10;;;29.50;20.60;;;;;;5090338;28;20231;-71
2022/06/12 08:33:46;;;;;;;12.70;3.83;;;29.60;18.80;;;;;;5091005;28;20180;-72
2022/06/12 08:36:13;;;;;;;27.13;4.97;;;29.70;17.60;;;;;;5090327;28;20203;-71
2022/06/12 08:38:39;;;;;;;11.38;4.05;;;29.80;16.80;;;;;;5088536;28;20528;-71
2022/06/12 08:41:26;;;;;;;34.75;5.53;;;30.00;26.00;;;;;;5094930;27;20256;-71
2022/06/12 08:43:59;;;;;;;13.65;3.33;;;30.10;15.70;;;;;;5089976;28;20845;-71
2022/06/12 08:46:35;;;;;;;9.23;3.78;;;30.20;14.70;;;;;;5079148;28;20165;-71
2022/06/12 08:49:16;;;;;;;9.25;3.08;;;30.40;13.60;;;;;;5083581;28;20176;-71
2022/06/12 08:52:14;;;;;;;9.90;3.15;;;30.40;12.00;;;;;;5088791;28;20181;-71
2022/06/12 08:54:46;;;;;;;14.98;3.22;;;30.50;10.50;;;;;;5087634;28;20182;-71
2022/06/12 08:57:21;;;;;;;7.38;3.15;;;30.40;9.40;;;;;;5089338;28;20234;-71
2022/06/12 08:59:58;;;;;;;103.05;9.68;;;30.30;8.20;;;;;;5089640;28;20242;-71
2022/06/12 09:02:30;;;;;;;4.45;2.38;;;30.40;7.80;;;;;;5089101;28;20601;-71
2022/06/12 09:04:58;;;;;;;29.52;4.30;;;30.50;6.30;;;;;;5082772;28;20549;-70
2022/06/12 09:07:54;;;;;;;5.63;2.75;;;30.50;5.70;;;;;;5088840;28;20238;-70
2022/06/12 09:10:51;;;;;;;12.95;2.78;;;30.60;4.50;;;;;;5088252;28;20204;-71
2022/06/12 09:13:55;;;;;;;18.48;5.35;;;30.70;3.80;;;;;;5091279;28;20351;-71
2022/06/12 09:16:24;;;;;;;16.40;3.67;;;30.60;2.70;;;;;;5086459;28;20176;-71
2022/06/12 09:19:29;;;;;;;12.57;3.67;;;30.60;1.20;;;;;;5086519;28;20286;-72
2022/06/12 09:22:33;;;;;;;8.55;2.63;;;30.70;1.00;;;;;;5088984;28;20758;-72
2022/06/12 09:25:41;;;;;;;34.25;5.30;;;30.80;1.00;;;;;;5077728;28;20681;-72
2022/06/12 09:28:44;;;;;;;4.60;3.05;;;30.90;1.00;;;;;;5065974;28;20185;-72
2022/06/12 09:31:17;;;;;;;38.85;6.90;;;30.90;1.00;;;;;;5088642;28;20204;-71
2022/06/12 09:33:56;;;;;;;43.97;5.75;;;31.10;1.00;;;;;;5088931;28;20173;-72
2022/06/12 09:36:32;;;;;;;14.25;3.42;;;31.30;1.00;;;;;;5087674;28;20165;-72
2022/06/12 09:39:07;;;;;;;39.53;5.10;;;31.20;1.00;;;;;;5082886;28;20662;-71
2022/06/12 09:41:33;;;;;;;28.25;4.78;;;31.10;1.00;;;;;;5084664;28;20675;-71
2022/06/12 09:44:02;;;;;;;17.13;3.80;;;31.00;1.00;;;;;;5090297;28;20197;-71
2022/06/12 09:46:35;;;;;;;10.45;2.88;;;31.00;1.00;;;;;;5090318;28;20222;-71
2022/06/12 09:49:16;;;;;;;22.40;4.65;;;31.00;1.00;;;;;;5088561;28;20256;-71
2022/06/12 09:51:41;;;;;;;7.68;2.58;;;31.20;1.00;;;;;;5072319;28;20263;-71
2022/06/12 09:54:32;;;;;;;19.63;4.35;;;31.10;1.00;;;;;;5069955;28;20522;-71
2022/06/12 09:57:18;;;;;;;6.03;3.38;;;31.20;1.00;;;;;;5064616;28;20609;-71
2022/06/12 10:00:03;;;;;;;3.28;2.55;;;31.20;1.00;;;;;;5069201;28;20165;-71
2022/06/12 10:02:47;;;;;;;45.17;6.53;;;31.20;1.00;;;;;;5069072;28;20158;-72
2022/06/12 10:05:17;;;;;;;6.50;2.60;;;31.30;1.00;;;;;;5069764;28;20706;-71
2022/06/12 10:07:50;;;;;;;4.20;2.60;;;31.20;1.00;;;;;;5069090;28;20173;-71
2022/06/12 10:10:30;;;;;;;10.20;2.88;;;31.30;1.00;;;;;;5069059;28;20276;-72
2022/06/12 10:13:04;;;;;;;14.02;3.28;;;31.30;1.00;;;;;;5069928;28;20161;-71
2022/06/12 10:15:34;;;;;;;4.03;2.53;;;31.40;1.00;;;;;;5080364;28;20602;-71
2022/06/12 10:18:14;;;;;;;15.35;3.47;;;31.30;1.00;;;;;;5089170;28;20161;-72
2022/06/12 10:21:08;;;;;;;12.57;3.90;;;31.20;1.00;;;;;;5089241;28;20188;-72
2022/06/12 10:23:34;;;;;;;9.98;4.47;;;31.10;1.00;;;;;;5081833;28;20744;-72
2022/06/12 10:26:07;;;;;;;3.20;2.28;;;31.10;1.00;;;;;;5072061;28;20181;-72
2022/06/12 10:28:36;;;;;;;3.25;2.33;;;31.10;1.00;;;;;;5089496;28;20218;-72
2022/06/12 10:31:04;;;;;;;9.52;3.13;;;31.10;1.00;;;;;;5089147;28;20188;-72
2022/06/12 10:33:50;;;;;;;5.13;2.50;;;31.10;1.00;;;;;;5090525;28;20541;-72
2022/06/12 10:36:30;;;;;;;8.65;3.17;;;31.10;1.00;;;;;;5089623;28;20215;-71
2022/06/12 10:39:04;;;;;;;7.25;3.25;;;31.10;1.00;;;;;;5088412;28;20169;-72
2022/06/12 10:41:31;;;;;;;9.48;2.80;;;31.00;1.00;;;;;;5088960;28;20199;-72
2022/06/12 10:43:57;;;;;;;4.38;2.53;;;31.00;1.00;;;;;;5089438;28;20200;-71
2022/06/12 10:46:32;;;;;;;10.18;3.10;;;30.90;1.00;;;;;;5089042;28;20192;-71
2022/06/12 10:49:05;;;;;;;2.58;2.38;;;30.90;1.00;;;;;;5088699;28;20241;-71
2022/06/12 10:51:36;;;;;;;11.18;3.47;;;30.80;1.00;;;;;;5088753;28;20289;-71
2022/06/12 10:54:11;;;;;;;19.85;3.72;;;30.70;1.00;;;;;;5088860;28;20172;-72
2022/06/12 10:56:40;;;;;;;19.77;3.83;;;30.70;1.00;;;;;;5089312;28;20243;-71
2022/06/12 10:59:16;;;;;;;17.48;4.43;;;30.60;1.00;;;;;;5088202;28;20634;-72
2022/06/12 11:02:06;;;;;;;3.38;2.58;;;30.60;1.00;;;;;;5088476;28;20184;-71
2022/06/12 11:04:55;;;;;;;4.93;2.85;;;30.60;1.00;;;;;;5089066;28;20570;-71
2022/06/12 11:07:41;;;;;;;13.75;3.28;;;30.60;1.00;;;;;;5088598;28;20155;-71
2022/06/12 11:10:35;;;;;;;10.57;2.95;;;30.40;1.00;;;;;;5088620;28;20597;-71
2022/06/12 11:13:38;;;;;;;3.00;2.55;;;30.20;1.00;;;;;;5088969;28;20171;-71
2022/06/12 11:16:21;;;;;;;12.52;3.58;;;30.20;1.00;;;;;;5088111;28;20168;-71
2022/06/12 11:18:46;;;;;;;12.55;3.38;;;30.30;1.00;;;;;;5088168;28;20160;-71
2022/06/12 11:21:24;;;;;;;15.82;4.28;;;30.20;1.00;;;;;;5088133;28;20185;-71
2022/06/12 11:24:16;;;;;;;9.03;3.23;;;30.20;1.00;;;;;;5078999;28;20204;-71
2022/06/12 11:27:04;;;;;;;5.93;2.90;;;30.20;1.00;;;;;;5077103;28;20189;-71
2022/06/12 11:29:48;;;;;;;32.07;5.03;;;30.20;1.00;;;;;;5088268;28;20317;-71
2022/06/12 11:32:26;;;;;;;50.43;6.63;;;30.00;1.00;;;;;;5088452;28;20191;-71
2022/06/12 11:35:19;;;;;;;58.80;6.87;;;29.90;1.00;;;;;;5088824;28;20429;-71
2022/06/12 11:38:09;;;;;;;20.83;5.27;;;29.80;1.00;;;;;;5087632;28;20165;-70
2022/06/12 11:40:59;;;;;;;9.03;3.20;;;29.70;1.00;;;;;;5088237;28;20226;-70
2022/06/12 11:43:37;;;;;;;8.13;3.30;;;29.70;1.00;;;;;;5088888;28;20801;-70
2022/06/12 11:46:20;;;;;;;4.90;3.00;;;29.70;1.00;;;;;;5088160;28;20391;-71
2022/06/12 11:49:15;;;;;;;35.37;6.27;;;29.70;1.00;;;;;;5088330;28;20184;-71
2022/06/12 11:52:02;;;;;;;24.30;5.30;;;29.70;1.00;;;;;;5083067;28;20741;-71
2022/06/12 11:54:33;;;;;;;8.23;3.50;;;29.70;1.00;;;;;;5088220;28;20261;-70
2022/06/12 11:57:40;;;;;;;3.40;3.03;;;29.70;1.00;;;;;;5088104;28;20403;-71
2022/06/12 12:00:13;;;;;;;26.03;5.77;;;29.60;1.00;;;;;;5086866;28;20503;-70
2022/06/12 12:02:42;;;;;;;19.70;4.30;;;29.70;1.00;;;;;;5088233;28;20169;-71
2022/06/12 12:05:49;;;;;;;7.10;2.70;;;29.70;1.00;;;;;;5088508;28;20541;-70
2022/06/12 12:08:40;;;;;;;7.73;3.37;;;29.60;1.00;;;;;;5087177;28;20424;-71
2022/06/12 12:11:24;;;;;;;11.07;5.63;;;29.60;1.00;;;;;;5088015;28;20532;-70
2022/06/12 12:13:55;;;;;;;6.40;3.30;;;29.50;1.00;;;;;;5088302;28;20589;-71
2022/06/12 12:16:38;;;;;;;22.87;3.67;;;29.40;1.00;;;;;;5085145;28;20411;-71
2022/06/12 12:19:29;;;;;;;15.73;3.40;;;29.40;1.00;;;;;;5084153;28;20398;-71
2022/06/12 12:22:03;;;;;;;15.33;3.53;;;29.40;1.00;;;;;;5087708;28;20446;-70
2022/06/12 12:24:38;;;;;;;10.37;3.60;;;29.20;1.00;;;;;;5087706;28;20461;-71
2022/06/12 12:27:10;;;;;;;4.10;2.63;;;29.00;1.00;;;;;;5089393;28;20394;-72
2022/06/12 12:29:39;;;;;;;12.90;4.17;;;29.00;1.00;;;;;;5091734;28;20414;-71
2022/06/12 12:32:08;;;;;;;22.43;4.47;;;29.00;1.00;;;;;;5091322;28;20513;-71
2022/06/12 12:34:35;;;;;;;13.93;4.10;;;29.00;1.00;;;;;;5092003;28;20395;-71
2022/06/12 12:43:05;;;;;;;7.03;3.30;;;28.90;1.00;;;;;;5088924;28;20891;-71
2022/06/12 12:45:34;;;;;;;7.80;3.20;;;28.90;1.00;;;;;;5091168;28;20423;-71
2022/06/12 12:47:59;;;;;;;18.70;4.80;;;28.90;1.00;;;;;;5091098;28;20406;-71
2022/06/12 12:50:29;;;;;;;5.97;3.20;;;29.00;1.00;;;;;;5091405;28;20430;-71
2022/06/12 12:52:58;;;;;;;6.80;2.90;;;29.00;1.00;;;;;;5091348;28;20188;-71
2022/06/12 12:55:29;;;;;;;9.63;3.50;;;29.00;1.00;;;;;;5092029;28;20399;-71
2022/06/12 12:57:58;;;;;;;12.43;3.90;;;29.10;1.00;;;;;;5091794;28;20406;-71
2022/06/12 13:00:26;;;;;;;19.77;3.80;;;29.10;1.00;;;;;;5092100;28;20942;-71
2022/06/12 13:02:57;;;;;;;4.10;2.90;;;29.00;1.00;;;;;;5091668;28;20453;-71
2022/06/12 13:05:30;;;;;;;11.00;4.30;;;28.90;1.00;;;;;;5092544;28;20451;-71
2022/06/12 13:08:11;;;;;;;8.73;3.13;;;28.90;1.00;;;;;;5091421;28;20407;-71
2022/06/12 13:10:48;;;;;;;4.80;2.70;;;28.90;1.00;;;;;;5091780;28;20502;-71
2022/06/12 13:13:37;;;;;;;4.33;2.87;;;28.80;1.00;;;;;;5092652;28;20441;-71
2022/06/12 13:16:14;;;;;;;48.33;6.03;;;28.80;1.00;;;;;;5090499;28;21027;-70
2022/06/12 13:19:04;;;;;;;47.07;6.23;;;28.80;1.00;;;;;;5090654;28;21037;-70
2022/06/12 13:21:48;;;;;;;28.87;4.70;;;28.70;1.00;;;;;;5090586;28;20476;-70
2022/06/12 13:24:13;;;;;;;10.20;3.20;;;28.70;1.00;;;;;;5077917;28;20557;-70
2022/06/12 13:26:42;;;;;;;12.10;3.40;;;28.70;1.00;;;;;;5078282;28;20502;-71
2022/06/12 13:29:20;;;;;;;3.77;2.80;;;28.80;1.00;;;;;;5090118;28;20169;-71
2022/06/12 13:32:05;;;;;;;6.57;3.03;;;28.80;1.00;;;;;;5090605;28;20472;-71
2022/06/12 13:34:31;;;;;;;15.03;3.77;;;28.90;1.00;;;;;;5089901;28;20769;-71
2022/06/12 13:36:59;;;;;;;16.67;3.80;;;28.90;1.00;;;;;;5089847;28;20403;-71